sensor_id;sensor_type;location;lat;lon;timestamp;P1;durP1;ratioP1;P2;durP2;ratioP2
11004;SDS011;5555;59.622;16.556;2023-04-25T00:01:10;16.87;;;10.87;;
11004;SDS011;5555;59.622;16.556;2023-04-25T00:03:38;14.73;;;11.87;;
11004;SDS011;5555;59.622;16.556;2023-04-25T00:06:04;15.03;;;11.47;;
11004;SDS011;5555;59.622;16.556;2023-04-25T00:08:30;15.63;;;13.30;;
11004;SDS011;5555;59.622;16.556;2023-04-25T00:10:56;15.97;;;14.37;;
11004;SDS011;5555;59.622;16.556;2023-04-25T00:13:22;16.27;;;11.10;;
11004;SDS011;5555;59.622;16.556;2023-04-25T00:15:48;14.17;;;11.27;;
11004;SDS011;5555;59.622;16.556;2023-04-25T00:18:14;18.60;;;11.83;;
11004;SDS011;5555;59.622;16.556;2023-04-25T00:20:40;14.33;;;10.97;;
11004;SDS011;5555;59.622;16.556;2023-04-25T00:23:09;11.70;;;10.47;;
11004;SDS011;5555;59.622;16.556;2023-04-25T00:25:35;15.63;;;11.57;;
11004;SDS011;5555;59.622;16.556;2023-04-25T00:28:00;16.13;;;11.90;;
11004;SDS011;5555;59.622;16.556;2023-04-25T00:30:26;15.17;;;11.17;;
11004;SDS011;5555;59.622;16.556;2023-04-25T00:32:51;17.47;;;11.70;;
11004;SDS011;5555;59.622;16.556;2023-04-25T00:35:18;14.80;;;13.23;;
11004;SDS011;5555;59.622;16.556;2023-04-25T00:37:43;15.23;;;10.90;;
11004;SDS011;5555;59.622;16.556;2023-04-25T00:40:10;16.33;;;11.50;;
11004;SDS011;5555;59.622;16.556;2023-04-25T00:42:35;12.57;;;10.47;;
11004;SDS011;5555;59.622;16.556;2023-04-25T00:45:03;18.20;;;11.73;;
11004;SDS011;5555;59.622;16.556;2023-04-25T00:47:30;13.60;;;10.93;;
11004;SDS011;5555;59.622;16.556;2023-04-25T00:49:57;12.60;;;10.67;;
11004;SDS011;5555;59.622;16.556;2023-04-25T00:52:23;13.87;;;10.50;;
11004;SDS011;5555;59.622;16.556;2023-04-25T00:54:49;14.53;;;11.10;;
11004;SDS011;5555;59.622;16.556;2023-04-25T00:57:14;16.47;;;9.97;;
11004;SDS011;5555;59.622;16.556;2023-04-25T00:59:40;19.67;;;11.67;;
11004;SDS011;5555;59.622;16.556;2023-04-25T01:02:10;14.37;;;10.77;;
11004;SDS011;5555;59.622;16.556;2023-04-25T01:04:35;13.13;;;10.57;;
11004;SDS011;5555;59.622;16.556;2023-04-25T01:07:01;15.73;;;10.57;;
11004;SDS011;5555;59.622;16.556;2023-04-25T01:09:27;14.93;;;11.23;;
11004;SDS011;5555;59.622;16.556;2023-04-25T01:11:55;16.10;;;10.57;;
11004;SDS011;5555;59.622;16.556;2023-04-25T01:14:22;13.10;;;11.87;;
11004;SDS011;5555;59.622;16.556;2023-04-25T01:16:48;14.67;;;10.23;;
11004;SDS011;5555;59.622;16.556;2023-04-25T01:19:14;15.50;;;10.77;;
11004;SDS011;5555;59.622;16.556;2023-04-25T01:21:43;13.40;;;10.10;;
11004;SDS011;5555;59.622;16.556;2023-04-25T01:24:09;10.10;;;8.83;;
11004;SDS011;5555;59.622;16.556;2023-04-25T01:26:35;11.27;;;8.77;;
11004;SDS011;5555;59.622;16.556;2023-04-25T01:29:01;10.77;;;9.70;;
11004;SDS011;5555;59.622;16.556;2023-04-25T01:31:28;9.80;;;7.80;;
11004;SDS011;5555;59.622;16.556;2023-04-25T01:33:55;10.27;;;7.77;;
11004;SDS011;5555;59.622;16.556;2023-04-25T01:36:21;10.50;;;8.57;;
11004;SDS011;5555;59.622;16.556;2023-04-25T01:38:47;9.93;;;8.10;;
11004;SDS011;5555;59.622;16.556;2023-04-25T01:41:13;8.37;;;7.20;;
11004;SDS011;5555;59.622;16.556;2023-04-25T01:43:39;7.70;;;6.93;;
11004;SDS011;5555;59.622;16.556;2023-04-25T01:46:05;7.40;;;6.23;;
11004;SDS011;5555;59.622;16.556;2023-04-25T01:48:31;7.87;;;7.07;;
11004;SDS011;5555;59.622;16.556;2023-04-25T01:50:57;9.20;;;6.73;;
11004;SDS011;5555;59.622;16.556;2023-04-25T01:53:23;6.87;;;6.07;;
11004;SDS011;5555;59.622;16.556;2023-04-25T01:55:49;8.53;;;6.43;;
11004;SDS011;5555;59.622;16.556;2023-04-25T01:58:15;6.80;;;6.10;;
11004;SDS011;5555;59.622;16.556;2023-04-25T02:00:40;7.17;;;6.43;;
11004;SDS011;5555;59.622;16.556;2023-04-25T02:03:06;6.93;;;5.47;;
11004;SDS011;5555;59.622;16.556;2023-04-25T02:05:36;6.50;;;5.90;;
11004;SDS011;5555;59.622;16.556;2023-04-25T02:08:04;6.70;;;5.57;;
11004;SDS011;5555;59.622;16.556;2023-04-25T02:10:30;6.23;;;5.63;;
11004;SDS011;5555;59.622;16.556;2023-04-25T02:12:56;6.60;;;5.90;;
11004;SDS011;5555;59.622;16.556;2023-04-25T02:15:22;6.90;;;6.20;;
11004;SDS011;5555;59.622;16.556;2023-04-25T02:17:48;6.17;;;5.23;;
11004;SDS011;5555;59.622;16.556;2023-04-25T02:20:14;5.97;;;5.37;;
11004;SDS011;5555;59.622;16.556;2023-04-25T02:22:41;8.00;;;6.40;;
11004;SDS011;5555;59.622;16.556;2023-04-25T02:25:07;6.67;;;5.00;;
11004;SDS011;5555;59.622;16.556;2023-04-25T02:27:34;5.13;;;4.70;;
11004;SDS011;5555;59.622;16.556;2023-04-25T02:30:00;6.17;;;5.30;;
11004;SDS011;5555;59.622;16.556;2023-04-25T02:32:26;5.00;;;4.57;;
11004;SDS011;5555;59.622;16.556;2023-04-25T02:34:52;6.57;;;4.83;;
11004;SDS011;5555;59.622;16.556;2023-04-25T02:37:18;4.93;;;4.40;;
11004;SDS011;5555;59.622;16.556;2023-04-25T02:39:44;5.07;;;4.57;;
11004;SDS011;5555;59.622;16.556;2023-04-25T02:42:09;5.97;;;4.77;;
11004;SDS011;5555;59.622;16.556;2023-04-25T02:44:35;5.60;;;4.90;;
11004;SDS011;5555;59.622;16.556;2023-04-25T02:47:01;5.80;;;5.17;;
11004;SDS011;5555;59.622;16.556;2023-04-25T02:49:26;6.20;;;5.20;;
11004;SDS011;5555;59.622;16.556;2023-04-25T02:51:52;5.20;;;4.70;;
11004;SDS011;5555;59.622;16.556;2023-04-25T02:54:18;3.97;;;3.60;;
11004;SDS011;5555;59.622;16.556;2023-04-25T02:56:43;5.00;;;4.60;;
11004;SDS011;5555;59.622;16.556;2023-04-25T02:59:09;5.80;;;4.80;;
11004;SDS011;5555;59.622;16.556;2023-04-25T03:01:34;4.97;;;4.47;;
11004;SDS011;5555;59.622;16.556;2023-04-25T03:04:00;5.40;;;4.60;;
11004;SDS011;5555;59.622;16.556;2023-04-25T03:06:25;4.97;;;4.50;;
11004;SDS011;5555;59.622;16.556;2023-04-25T03:08:51;4.67;;;4.20;;
11004;SDS011;5555;59.622;16.556;2023-04-25T03:11:17;4.53;;;4.10;;
11004;SDS011;5555;59.622;16.556;2023-04-25T03:13:42;4.60;;;4.20;;
11004;SDS011;5555;59.622;16.556;2023-04-25T03:16:08;4.83;;;4.20;;
11004;SDS011;5555;59.622;16.556;2023-04-25T03:18:33;5.20;;;4.47;;
11004;SDS011;5555;59.622;16.556;2023-04-25T03:20:59;4.40;;;4.00;;
11004;SDS011;5555;59.622;16.556;2023-04-25T03:23:25;4.90;;;4.50;;
11004;SDS011;5555;59.622;16.556;2023-04-25T03:25:50;4.07;;;3.60;;
11004;SDS011;5555;59.622;16.556;2023-04-25T03:28:16;4.87;;;4.47;;
11004;SDS011;5555;59.622;16.556;2023-04-25T03:30:42;5.00;;;4.40;;
11004;SDS011;5555;59.622;16.556;2023-04-25T03:33:07;4.83;;;4.30;;
11004;SDS011;5555;59.622;16.556;2023-04-25T03:35:33;5.27;;;4.23;;
11004;SDS011;5555;59.622;16.556;2023-04-25T03:37:58;4.70;;;4.17;;
11004;SDS011;5555;59.622;16.556;2023-04-25T03:40:24;5.00;;;4.33;;
11004;SDS011;5555;59.622;16.556;2023-04-25T03:42:50;4.83;;;4.33;;
11004;SDS011;5555;59.622;16.556;2023-04-25T03:45:15;4.57;;;4.17;;
11004;SDS011;5555;59.622;16.556;2023-04-25T03:47:41;4.30;;;3.90;;
11004;SDS011;5555;59.622;16.556;2023-04-25T03:50:07;4.80;;;3.93;;
11004;SDS011;5555;59.622;16.556;2023-04-25T03:52:33;4.50;;;4.10;;
11004;SDS011;5555;59.622;16.556;2023-04-25T03:54:58;4.23;;;3.77;;
11004;SDS011;5555;59.622;16.556;2023-04-25T03:57:24;3.77;;;3.40;;
11004;SDS011;5555;59.622;16.556;2023-04-25T03:59:49;3.47;;;3.17;;
11004;SDS011;5555;59.622;16.556;2023-04-25T04:02:15;3.43;;;3.13;;
11004;SDS011;5555;59.622;16.556;2023-04-25T04:04:41;3.40;;;3.20;;
11004;SDS011;5555;59.622;16.556;2023-04-25T04:07:09;3.17;;;2.87;;
11004;SDS011;5555;59.622;16.556;2023-04-25T04:09:35;2.80;;;2.60;;
11004;SDS011;5555;59.622;16.556;2023-04-25T04:12:00;2.93;;;2.73;;
11004;SDS011;5555;59.622;16.556;2023-04-25T04:14:26;3.53;;;2.97;;
11004;SDS011;5555;59.622;16.556;2023-04-25T04:16:52;2.97;;;2.67;;
11004;SDS011;5555;59.622;16.556;2023-04-25T04:19:17;2.63;;;2.43;;
11004;SDS011;5555;59.622;16.556;2023-04-25T04:21:43;2.70;;;2.50;;
11004;SDS011;5555;59.622;16.556;2023-04-25T04:24:09;2.70;;;2.50;;
11004;SDS011;5555;59.622;16.556;2023-04-25T04:26:35;2.80;;;2.60;;
11004;SDS011;5555;59.622;16.556;2023-04-25T04:29:02;2.70;;;2.50;;
11004;SDS011;5555;59.622;16.556;2023-04-25T04:31:27;2.80;;;2.60;;
11004;SDS011;5555;59.622;16.556;2023-04-25T04:33:54;2.90;;;2.70;;
11004;SDS011;5555;59.622;16.556;2023-04-25T04:36:20;2.80;;;2.60;;
11004;SDS011;5555;59.622;16.556;2023-04-25T04:38:47;2.73;;;2.53;;
11004;SDS011;5555;59.622;16.556;2023-04-25T04:41:13;2.60;;;2.40;;
11004;SDS011;5555;59.622;16.556;2023-04-25T04:43:39;2.53;;;2.33;;
11004;SDS011;5555;59.622;16.556;2023-04-25T04:46:04;2.37;;;2.17;;
11004;SDS011;5555;59.622;16.556;2023-04-25T04:48:33;2.67;;;2.47;;
11004;SDS011;5555;59.622;16.556;2023-04-25T04:50:59;2.30;;;2.07;;
11004;SDS011;5555;59.622;16.556;2023-04-25T04:53:25;2.50;;;2.30;;
11004;SDS011;5555;59.622;16.556;2023-04-25T04:55:51;2.33;;;2.13;;
11004;SDS011;5555;59.622;16.556;2023-04-25T04:58:17;2.80;;;2.60;;
11004;SDS011;5555;59.622;16.556;2023-04-25T05:00:43;3.00;;;2.23;;
11004;SDS011;5555;59.622;16.556;2023-04-25T05:03:09;2.33;;;2.20;;
11004;SDS011;5555;59.622;16.556;2023-04-25T05:05:36;2.37;;;2.10;;
11004;SDS011;5555;59.622;16.556;2023-04-25T05:08:05;1.93;;;1.83;;
11004;SDS011;5555;59.622;16.556;2023-04-25T05:10:31;2.30;;;2.10;;
11004;SDS011;5555;59.622;16.556;2023-04-25T05:12:56;2.27;;;2.00;;
11004;SDS011;5555;59.622;16.556;2023-04-25T05:15:22;1.60;;;1.50;;
11004;SDS011;5555;59.622;16.556;2023-04-25T05:17:47;1.60;;;1.50;;
11004;SDS011;5555;59.622;16.556;2023-04-25T05:20:13;1.53;;;1.43;;
11004;SDS011;5555;59.622;16.556;2023-04-25T05:22:39;1.80;;;1.70;;
11004;SDS011;5555;59.622;16.556;2023-04-25T05:25:06;1.80;;;1.70;;
11004;SDS011;5555;59.622;16.556;2023-04-25T05:27:33;1.80;;;1.70;;
11004;SDS011;5555;59.622;16.556;2023-04-25T05:29:58;1.70;;;1.60;;
11004;SDS011;5555;59.622;16.556;2023-04-25T05:32:24;1.70;;;1.60;;
11004;SDS011;5555;59.622;16.556;2023-04-25T05:34:50;2.63;;;1.57;;
11004;SDS011;5555;59.622;16.556;2023-04-25T05:37:16;2.00;;;1.80;;
11004;SDS011;5555;59.622;16.556;2023-04-25T05:39:42;2.47;;;1.97;;
11004;SDS011;5555;59.622;16.556;2023-04-25T05:42:08;2.07;;;1.80;;
11004;SDS011;5555;59.622;16.556;2023-04-25T05:44:33;2.43;;;1.70;;
11004;SDS011;5555;59.622;16.556;2023-04-25T05:46:59;1.93;;;1.80;;
11004;SDS011;5555;59.622;16.556;2023-04-25T05:49:25;2.40;;;2.10;;
11004;SDS011;5555;59.622;16.556;2023-04-25T05:51:50;2.07;;;1.87;;
11004;SDS011;5555;59.622;16.556;2023-04-25T05:54:16;2.40;;;2.20;;
11004;SDS011;5555;59.622;16.556;2023-04-25T05:56:41;2.13;;;1.93;;
11004;SDS011;5555;59.622;16.556;2023-04-25T05:59:07;2.90;;;1.87;;
11004;SDS011;5555;59.622;16.556;2023-04-25T06:01:33;1.90;;;1.80;;
11004;SDS011;5555;59.622;16.556;2023-04-25T06:03:58;2.13;;;2.00;;
11004;SDS011;5555;59.622;16.556;2023-04-25T06:06:24;2.07;;;1.97;;
11004;SDS011;5555;59.622;16.556;2023-04-25T06:08:51;2.77;;;2.17;;
11004;SDS011;5555;59.622;16.556;2023-04-25T06:11:17;2.23;;;1.97;;
11004;SDS011;5555;59.622;16.556;2023-04-25T06:13:42;2.37;;;2.17;;
11004;SDS011;5555;59.622;16.556;2023-04-25T06:16:08;1.73;;;1.63;;
11004;SDS011;5555;59.622;16.556;2023-04-25T06:18:34;1.83;;;1.73;;
11004;SDS011;5555;59.622;16.556;2023-04-25T06:20:59;2.20;;;2.00;;
11004;SDS011;5555;59.622;16.556;2023-04-25T06:23:25;1.83;;;1.73;;
11004;SDS011;5555;59.622;16.556;2023-04-25T06:25:51;1.87;;;1.77;;
11004;SDS011;5555;59.622;16.556;2023-04-25T06:28:17;2.47;;;2.00;;
11004;SDS011;5555;59.622;16.556;2023-04-25T06:30:42;2.33;;;2.13;;
11004;SDS011;5555;59.622;16.556;2023-04-25T06:33:08;1.73;;;1.63;;
11004;SDS011;5555;59.622;16.556;2023-04-25T06:35:34;2.30;;;2.10;;
11004;SDS011;5555;59.622;16.556;2023-04-25T06:37:59;2.30;;;2.10;;
11004;SDS011;5555;59.622;16.556;2023-04-25T06:40:25;1.70;;;1.60;;
11004;SDS011;5555;59.622;16.556;2023-04-25T06:42:51;1.90;;;1.80;;
11004;SDS011;5555;59.622;16.556;2023-04-25T06:45:16;2.43;;;2.27;;
11004;SDS011;5555;59.622;16.556;2023-04-25T06:47:42;2.37;;;1.87;;
11004;SDS011;5555;59.622;16.556;2023-04-25T06:50:08;1.97;;;1.87;;
11004;SDS011;5555;59.622;16.556;2023-04-25T06:52:33;1.90;;;1.80;;
11004;SDS011;5555;59.622;16.556;2023-04-25T06:54:59;1.77;;;1.67;;
11004;SDS011;5555;59.622;16.556;2023-04-25T06:57:25;2.30;;;2.10;;
11004;SDS011;5555;59.622;16.556;2023-04-25T06:59:50;2.53;;;2.10;;
11004;SDS011;5555;59.622;16.556;2023-04-25T07:02:16;2.10;;;2.00;;
11004;SDS011;5555;59.622;16.556;2023-04-25T07:04:42;2.00;;;1.90;;
11004;SDS011;5555;59.622;16.556;2023-04-25T07:07:07;2.10;;;2.00;;
11004;SDS011;5555;59.622;16.556;2023-04-25T07:09:33;2.10;;;1.90;;
11004;SDS011;5555;59.622;16.556;2023-04-25T07:11:59;1.90;;;1.80;;
11004;SDS011;5555;59.622;16.556;2023-04-25T07:14:26;1.77;;;1.67;;
11004;SDS011;5555;59.622;16.556;2023-04-25T07:16:52;2.13;;;2.03;;
11004;SDS011;5555;59.622;16.556;2023-04-25T07:19:18;2.23;;;2.10;;
11004;SDS011;5555;59.622;16.556;2023-04-25T07:21:43;2.53;;;2.17;;
11004;SDS011;5555;59.622;16.556;2023-04-25T07:24:09;2.40;;;2.20;;
11004;SDS011;5555;59.622;16.556;2023-04-25T07:26:35;2.17;;;2.03;;
11004;SDS011;5555;59.622;16.556;2023-04-25T07:29:00;2.60;;;2.20;;
11004;SDS011;5555;59.622;16.556;2023-04-25T07:31:26;2.47;;;2.27;;
11004;SDS011;5555;59.622;16.556;2023-04-25T07:33:52;2.20;;;2.10;;
11004;SDS011;5555;59.622;16.556;2023-04-25T07:36:17;2.87;;;2.00;;
11004;SDS011;5555;59.622;16.556;2023-04-25T07:38:43;2.37;;;2.17;;
11004;SDS011;5555;59.622;16.556;2023-04-25T07:41:08;2.07;;;1.87;;
11004;SDS011;5555;59.622;16.556;2023-04-25T07:43:34;2.17;;;1.97;;
11004;SDS011;5555;59.622;16.556;2023-04-25T07:46:00;2.57;;;2.37;;
11004;SDS011;5555;59.622;16.556;2023-04-25T07:48:25;1.77;;;1.67;;
11004;SDS011;5555;59.622;16.556;2023-04-25T07:50:51;1.80;;;1.70;;
11004;SDS011;5555;59.622;16.556;2023-04-25T07:53:16;2.40;;;2.20;;
11004;SDS011;5555;59.622;16.556;2023-04-25T07:55:43;2.27;;;2.03;;
11004;SDS011;5555;59.622;16.556;2023-04-25T07:58:09;1.90;;;1.80;;
11004;SDS011;5555;59.622;16.556;2023-04-25T08:00:36;2.33;;;2.13;;
11004;SDS011;5555;59.622;16.556;2023-04-25T08:03:02;1.80;;;1.70;;
11004;SDS011;5555;59.622;16.556;2023-04-25T08:05:28;2.10;;;1.90;;
11004;SDS011;5555;59.622;16.556;2023-04-25T08:07:54;2.33;;;2.07;;
11004;SDS011;5555;59.622;16.556;2023-04-25T08:10:21;2.63;;;2.43;;
11004;SDS011;5555;59.622;16.556;2023-04-25T08:12:48;2.50;;;2.30;;
11004;SDS011;5555;59.622;16.556;2023-04-25T08:15:13;3.10;;;2.80;;
11004;SDS011;5555;59.622;16.556;2023-04-25T08:17:39;2.53;;;2.33;;
11004;SDS011;5555;59.622;16.556;2023-04-25T08:20:05;2.73;;;2.40;;
11004;SDS011;5555;59.622;16.556;2023-04-25T08:22:31;2.00;;;1.90;;
11004;SDS011;5555;59.622;16.556;2023-04-25T08:24:57;2.90;;;2.60;;
11004;SDS011;5555;59.622;16.556;2023-04-25T08:27:23;2.50;;;2.30;;
11004;SDS011;5555;59.622;16.556;2023-04-25T08:29:48;2.40;;;2.20;;
11004;SDS011;5555;59.622;16.556;2023-04-25T08:32:15;2.13;;;2.00;;
11004;SDS011;5555;59.622;16.556;2023-04-25T08:34:40;2.67;;;2.40;;
11004;SDS011;5555;59.622;16.556;2023-04-25T08:37:07;2.57;;;2.37;;
11004;SDS011;5555;59.622;16.556;2023-04-25T08:39:34;2.57;;;2.37;;
11004;SDS011;5555;59.622;16.556;2023-04-25T08:42:05;2.20;;;2.10;;
11004;SDS011;5555;59.622;16.556;2023-04-25T08:44:35;2.23;;;2.03;;
11004;SDS011;5555;59.622;16.556;2023-04-25T08:47:04;2.40;;;2.20;;
11004;SDS011;5555;59.622;16.556;2023-04-25T08:49:31;1.63;;;1.53;;
11004;SDS011;5555;59.622;16.556;2023-04-25T08:52:02;2.13;;;1.93;;
11004;SDS011;5555;59.622;16.556;2023-04-25T08:54:30;1.53;;;1.43;;
11004;SDS011;5555;59.622;16.556;2023-04-25T08:56:57;1.97;;;1.80;;
11004;SDS011;5555;59.622;16.556;2023-04-25T08:59:27;2.30;;;1.73;;
11004;SDS011;5555;59.622;16.556;2023-04-25T09:01:53;1.97;;;1.77;;
11004;SDS011;5555;59.622;16.556;2023-04-25T09:04:19;2.30;;;2.10;;
11004;SDS011;5555;59.622;16.556;2023-04-25T09:06:46;2.10;;;1.90;;
11004;SDS011;5555;59.622;16.556;2023-04-25T09:09:12;2.20;;;1.67;;
11004;SDS011;5555;59.622;16.556;2023-04-25T09:11:38;1.93;;;1.70;;
11004;SDS011;5555;59.622;16.556;2023-04-25T09:14:19;1.97;;;1.77;;
11004;SDS011;5555;59.622;16.556;2023-04-25T09:19:31;1.70;;;1.60;;
11004;SDS011;5555;59.622;16.556;2023-04-25T09:21:58;2.10;;;1.90;;
11004;SDS011;5555;59.622;16.556;2023-04-25T09:24:35;1.93;;;1.80;;
11004;SDS011;5555;59.622;16.556;2023-04-25T09:27:07;1.87;;;1.77;;
11004;SDS011;5555;59.622;16.556;2023-04-25T09:29:35;2.00;;;1.60;;
11004;SDS011;5555;59.622;16.556;2023-04-25T09:32:12;1.87;;;1.67;;
11004;SDS011;5555;59.622;16.556;2023-04-25T09:34:41;2.30;;;1.37;;
11004;SDS011;5555;59.622;16.556;2023-04-25T09:37:11;1.40;;;1.30;;
11004;SDS011;5555;59.622;16.556;2023-04-25T09:39:37;1.77;;;1.53;;
11004;SDS011;5555;59.622;16.556;2023-04-25T09:42:04;2.33;;;1.87;;
11004;SDS011;5555;59.622;16.556;2023-04-25T09:44:30;1.77;;;1.60;;
11004;SDS011;5555;59.622;16.556;2023-04-25T09:46:56;2.27;;;2.07;;
11004;SDS011;5555;59.622;16.556;2023-04-25T09:49:22;1.70;;;1.60;;
11004;SDS011;5555;59.622;16.556;2023-04-25T09:51:58;2.00;;;1.80;;
11004;SDS011;5555;59.622;16.556;2023-04-25T09:54:24;2.17;;;1.80;;
11004;SDS011;5555;59.622;16.556;2023-04-25T09:56:51;1.73;;;1.63;;
11004;SDS011;5555;59.622;16.556;2023-04-25T09:59:21;1.50;;;1.40;;
11004;SDS011;5555;59.622;16.556;2023-04-25T10:01:50;1.60;;;1.50;;
11004;SDS011;5555;59.622;16.556;2023-04-25T10:04:18;1.80;;;1.60;;
11004;SDS011;5555;59.622;16.556;2023-04-25T10:06:48;2.00;;;1.90;;
11004;SDS011;5555;59.622;16.556;2023-04-25T10:09:15;1.87;;;1.77;;
11004;SDS011;5555;59.622;16.556;2023-04-25T10:11:45;1.80;;;1.70;;
11004;SDS011;5555;59.622;16.556;2023-04-25T10:14:13;2.90;;;2.17;;
11004;SDS011;5555;59.622;16.556;2023-04-25T10:16:39;2.07;;;1.97;;
11004;SDS011;5555;59.622;16.556;2023-04-25T10:19:06;2.40;;;1.90;;
11004;SDS011;5555;59.622;16.556;2023-04-25T10:21:32;2.37;;;2.17;;
11004;SDS011;5555;59.622;16.556;2023-04-25T10:24:00;2.13;;;1.93;;
11004;SDS011;5555;59.622;16.556;2023-04-25T10:26:26;2.10;;;1.77;;
11004;SDS011;5555;59.622;16.556;2023-04-25T10:28:59;2.53;;;2.10;;
11004;SDS011;5555;59.622;16.556;2023-04-25T10:31:26;2.37;;;2.17;;
11004;SDS011;5555;59.622;16.556;2023-04-25T10:33:52;2.20;;;1.93;;
11004;SDS011;5555;59.622;16.556;2023-04-25T10:36:19;2.27;;;2.03;;
11004;SDS011;5555;59.622;16.556;2023-04-25T10:38:49;2.30;;;2.10;;
11004;SDS011;5555;59.622;16.556;2023-04-25T10:41:17;2.57;;;2.10;;
11004;SDS011;5555;59.622;16.556;2023-04-25T10:43:44;2.20;;;2.00;;
11004;SDS011;5555;59.622;16.556;2023-04-25T10:46:23;2.53;;;2.07;;
11004;SDS011;5555;59.622;16.556;2023-04-25T10:59:13;2.90;;;2.40;;
11004;SDS011;5555;59.622;16.556;2023-04-25T11:01:44;2.40;;;2.10;;
11004;SDS011;5555;59.622;16.556;2023-04-25T11:04:22;1.93;;;1.73;;
11004;SDS011;5555;59.622;16.556;2023-04-25T11:07:07;20.73;;;3.90;;
11004;SDS011;5555;59.622;16.556;2023-04-25T11:09:51;2.57;;;2.37;;
11004;SDS011;5555;59.622;16.556;2023-04-25T11:12:17;2.77;;;2.40;;
11004;SDS011;5555;59.622;16.556;2023-04-25T11:14:43;2.10;;;1.90;;
11004;SDS011;5555;59.622;16.556;2023-04-25T11:17:08;2.47;;;1.80;;
11004;SDS011;5555;59.622;16.556;2023-04-25T11:19:36;2.50;;;1.80;;
11004;SDS011;5555;59.622;16.556;2023-04-25T11:22:01;1.93;;;1.83;;
11004;SDS011;5555;59.622;16.556;2023-04-25T11:24:28;2.57;;;1.90;;
11004;SDS011;5555;59.622;16.556;2023-04-25T11:26:55;2.60;;;1.87;;
11004;SDS011;5555;59.622;16.556;2023-04-25T11:29:22;4.00;;;2.10;;
11004;SDS011;5555;59.622;16.556;2023-04-25T11:31:48;2.40;;;2.17;;
11004;SDS011;5555;59.622;16.556;2023-04-25T11:34:17;2.63;;;2.10;;
11004;SDS011;5555;59.622;16.556;2023-04-25T11:36:43;2.20;;;2.00;;
11004;SDS011;5555;59.622;16.556;2023-04-25T11:39:10;2.13;;;1.97;;
11004;SDS011;5555;59.622;16.556;2023-04-25T11:41:39;2.67;;;2.43;;
11004;SDS011;5555;59.622;16.556;2023-04-25T11:44:05;2.50;;;2.30;;
11004;SDS011;5555;59.622;16.556;2023-04-25T11:46:33;3.77;;;2.37;;
11004;SDS011;5555;59.622;16.556;2023-04-25T11:49:00;2.27;;;2.10;;
11004;SDS011;5555;59.622;16.556;2023-04-25T11:51:25;2.90;;;2.30;;
11004;SDS011;5555;59.622;16.556;2023-04-25T11:53:52;2.20;;;2.00;;
11004;SDS011;5555;59.622;16.556;2023-04-25T11:56:17;2.97;;;2.50;;
11004;SDS011;5555;59.622;16.556;2023-04-25T11:58:56;2.97;;;2.13;;
11004;SDS011;5555;59.622;16.556;2023-04-25T12:01:32;2.53;;;2.20;;
11004;SDS011;5555;59.622;16.556;2023-04-25T12:06:44;3.33;;;2.20;;
11004;SDS011;5555;59.622;16.556;2023-04-25T12:09:14;2.10;;;1.90;;
11004;SDS011;5555;59.622;16.556;2023-04-25T12:11:46;2.93;;;2.13;;
11004;SDS011;5555;59.622;16.556;2023-04-25T12:14:23;2.77;;;2.00;;
11004;SDS011;5555;59.622;16.556;2023-04-25T12:16:56;2.57;;;1.90;;
11004;SDS011;5555;59.622;16.556;2023-04-25T12:19:23;2.60;;;2.00;;
11004;SDS011;5555;59.622;16.556;2023-04-25T12:21:49;3.40;;;2.20;;
11004;SDS011;5555;59.622;16.556;2023-04-25T12:24:25;3.83;;;2.37;;
11004;SDS011;5555;59.622;16.556;2023-04-25T12:27:02;3.93;;;2.70;;
11004;SDS011;5555;59.622;16.556;2023-04-25T12:29:30;6.07;;;2.70;;
11004;SDS011;5555;59.622;16.556;2023-04-25T12:31:57;5.43;;;2.37;;
11004;SDS011;5555;59.622;16.556;2023-04-25T12:34:23;2.87;;;2.43;;
11004;SDS011;5555;59.622;16.556;2023-04-25T12:36:49;2.30;;;2.03;;
11004;SDS011;5555;59.622;16.556;2023-04-25T12:39:16;2.93;;;2.20;;
11004;SDS011;5555;59.622;16.556;2023-04-25T12:41:44;3.23;;;2.00;;
11004;SDS011;5555;59.622;16.556;2023-04-25T12:44:12;2.83;;;2.27;;
11004;SDS011;5555;59.622;16.556;2023-04-25T12:46:38;3.33;;;2.70;;
11004;SDS011;5555;59.622;16.556;2023-04-25T12:49:04;7.67;;;2.97;;
11004;SDS011;5555;59.622;16.556;2023-04-25T12:51:32;3.13;;;2.50;;
11004;SDS011;5555;59.622;16.556;2023-04-25T12:53:58;4.33;;;2.87;;
11004;SDS011;5555;59.622;16.556;2023-04-25T12:56:25;5.00;;;2.73;;
11004;SDS011;5555;59.622;16.556;2023-04-25T12:58:51;2.53;;;2.33;;
11004;SDS011;5555;59.622;16.556;2023-04-25T13:01:17;3.33;;;3.03;;
11004;SDS011;5555;59.622;16.556;2023-04-25T13:03:42;3.23;;;2.60;;
11004;SDS011;5555;59.622;16.556;2023-04-25T13:06:08;2.97;;;2.67;;
11004;SDS011;5555;59.622;16.556;2023-04-25T13:08:34;4.10;;;2.93;;
11004;SDS011;5555;59.622;16.556;2023-04-25T13:11:01;5.73;;;2.87;;
11004;SDS011;5555;59.622;16.556;2023-04-25T13:13:28;6.57;;;2.87;;
11004;SDS011;5555;59.622;16.556;2023-04-25T13:15:54;5.57;;;2.90;;
11004;SDS011;5555;59.622;16.556;2023-04-25T13:18:19;4.53;;;3.30;;
11004;SDS011;5555;59.622;16.556;2023-04-25T13:20:45;3.23;;;2.77;;
11004;SDS011;5555;59.622;16.556;2023-04-25T13:23:11;3.73;;;2.70;;
11004;SDS011;5555;59.622;16.556;2023-04-25T13:25:37;3.37;;;2.73;;
11004;SDS011;5555;59.622;16.556;2023-04-25T13:28:02;3.23;;;2.50;;
11004;SDS011;5555;59.622;16.556;2023-04-25T13:30:28;4.60;;;2.67;;
11004;SDS011;5555;59.622;16.556;2023-04-25T13:32:54;2.40;;;2.20;;
11004;SDS011;5555;59.622;16.556;2023-04-25T13:35:21;5.63;;;2.70;;
11004;SDS011;5555;59.622;16.556;2023-04-25T13:37:47;4.50;;;2.60;;
11004;SDS011;5555;59.622;16.556;2023-04-25T13:40:13;8.07;;;3.20;;
11004;SDS011;5555;59.622;16.556;2023-04-25T13:42:39;6.70;;;3.00;;
11004;SDS011;5555;59.622;16.556;2023-04-25T13:45:05;8.17;;;3.00;;
11004;SDS011;5555;59.622;16.556;2023-04-25T13:47:31;3.93;;;3.37;;
11004;SDS011;5555;59.622;16.556;2023-04-25T13:49:57;2.80;;;2.60;;
11004;SDS011;5555;59.622;16.556;2023-04-25T13:52:23;3.30;;;3.00;;
11004;SDS011;5555;59.622;16.556;2023-04-25T13:54:52;3.67;;;3.27;;
11004;SDS011;5555;59.622;16.556;2023-04-25T13:57:17;4.50;;;2.90;;
11004;SDS011;5555;59.622;16.556;2023-04-25T13:59:43;3.23;;;2.93;;
11004;SDS011;5555;59.622;16.556;2023-04-25T14:02:09;4.10;;;3.40;;
11004;SDS011;5555;59.622;16.556;2023-04-25T14:04:34;3.87;;;2.70;;
11004;SDS011;5555;59.622;16.556;2023-04-25T14:07:03;3.33;;;3.03;;
11004;SDS011;5555;59.622;16.556;2023-04-25T14:09:29;3.60;;;3.30;;
11004;SDS011;5555;59.622;16.556;2023-04-25T14:11:55;4.67;;;3.20;;
11004;SDS011;5555;59.622;16.556;2023-04-25T14:14:21;4.33;;;3.00;;
11004;SDS011;5555;59.622;16.556;2023-04-25T14:16:48;3.47;;;3.17;;
11004;SDS011;5555;59.622;16.556;2023-04-25T14:19:15;3.37;;;3.00;;
11004;SDS011;5555;59.622;16.556;2023-04-25T14:21:41;3.17;;;2.57;;
11004;SDS011;5555;59.622;16.556;2023-04-25T14:24:08;3.13;;;2.77;;
11004;SDS011;5555;59.622;16.556;2023-04-25T14:26:34;3.17;;;2.40;;
11004;SDS011;5555;59.622;16.556;2023-04-25T14:29:03;3.13;;;2.70;;
11004;SDS011;5555;59.622;16.556;2023-04-25T14:31:32;4.63;;;2.80;;
11004;SDS011;5555;59.622;16.556;2023-04-25T14:33:58;3.40;;;2.77;;
11004;SDS011;5555;59.622;16.556;2023-04-25T14:36:24;4.23;;;2.73;;
11004;SDS011;5555;59.622;16.556;2023-04-25T14:38:51;4.13;;;3.40;;
11004;SDS011;5555;59.622;16.556;2023-04-25T14:41:17;4.60;;;3.70;;
11004;SDS011;5555;59.622;16.556;2023-04-25T14:43:43;3.97;;;3.30;;
11004;SDS011;5555;59.622;16.556;2023-04-25T14:46:09;4.47;;;3.47;;
11004;SDS011;5555;59.622;16.556;2023-04-25T14:48:35;6.00;;;3.53;;
11004;SDS011;5555;59.622;16.556;2023-04-25T14:51:01;4.17;;;3.20;;
11004;SDS011;5555;59.622;16.556;2023-04-25T14:53:27;4.20;;;3.27;;
11004;SDS011;5555;59.622;16.556;2023-04-25T14:55:52;3.40;;;3.10;;
11004;SDS011;5555;59.622;16.556;2023-04-25T14:58:18;3.23;;;2.93;;